Time;durP1;ratioP1;P1;durP2;ratioP2;P2;SDS_P1;SDS_P2;PMS_P1;PMS_P2;Temp;Humidity;BMP_temperature;BMP_pressure;BME280_temperature;BME280_humidity;BME280_pressure;Samples;Min_cycle;Max_cycle;Signal;HPM_P1;HPM_P2
2021/11/30 00:01:22;;;;;;;;;18.75;15.00;;;;;;;;5075813;27;45466;-74
2021/11/30 00:03:47;;;;;;;;;17.67;14.33;;;;;;;;5079176;27;45584;-74
2021/11/30 00:06:13;;;;;;;;;20.00;14.33;;;;;;;;5062622;28;45362;-74
2021/11/30 00:08:39;;;;;;;;;20.00;15.00;;;;;;;;5077838;27;45406;-74
2021/11/30 00:11:05;;;;;;;;;16.00;13.75;;;;;;;;5082690;27;45809;-74
2021/11/30 00:13:32;;;;;;;;;12.75;12.75;;;;;;;;5086150;27;46316;-74
2021/11/30 00:15:57;;;;;;;;;16.25;14.25;;;;;;;;5074890;27;45989;-74
2021/11/30 00:18:23;;;;;;;;;17.00;12.00;;;;;;;;5056513;27;45485;-74
2021/11/30 00:20:49;;;;;;;;;22.25;16.00;;;;;;;;5078167;27;45723;-74
2021/11/30 00:23:14;;;;;;;;;21.00;14.50;;;;;;;;5082329;27;46112;-74
2021/11/30 00:25:40;;;;;;;;;21.50;14.50;;;;;;;;5071665;27;45434;-74
2021/11/30 00:28:05;;;;;;;;;22.50;14.00;;;;;;;;5084647;27;45454;-73
2021/11/30 00:30:32;;;;;;;;;20.75;14.25;;;;;;;;5075466;27;45418;-74
2021/11/30 00:32:58;;;;;;;;;18.75;15.00;;;;;;;;5080228;27;45891;-74
2021/11/30 00:35:23;;;;;;;;;21.25;18.25;;;;;;;;5078217;27;45503;-73
2021/11/30 00:37:49;;;;;;;;;15.67;15.00;;;;;;;;5077970;27;45873;-74
2021/11/30 00:40:14;;;;;;;;;11.75;10.25;;;;;;;;5077128;27;45359;-73
2021/11/30 00:42:39;;;;;;;;;24.67;19.00;;;;;;;;5073594;27;45318;-73
2021/11/30 00:45:07;;;;;;;;;17.25;15.50;;;;;;;;5090423;27;45366;-73
2021/11/30 00:47:33;;;;;;;;;20.50;20.50;;;;;;;;5077359;27;45225;-74
2021/11/30 00:49:59;;;;;;;;;19.00;19.00;;;;;;;;5079649;27;45379;-74
2021/11/30 00:52:25;;;;;;;;;20.25;16.25;;;;;;;;5080549;27;46100;-73
2021/11/30 00:54:51;;;;;;;;;19.75;14.00;;;;;;;;5073275;27;45428;-73
2021/11/30 00:57:17;;;;;;;;;22.50;19.75;;;;;;;;5090755;27;45416;-73
2021/11/30 00:59:42;;;;;;;;;19.50;14.50;;;;;;;;5089090;27;45554;-74
2021/11/30 01:02:07;;;;;;;;;17.00;14.00;;;;;;;;5083010;27;45982;-74
2021/11/30 01:04:33;;;;;;;;;21.00;16.25;;;;;;;;5077073;27;45657;-73
2021/11/30 01:06:58;;;;;;;;;19.67;17.67;;;;;;;;5071297;27;45680;-74
2021/11/30 01:09:23;;;;;;;;;22.25;18.25;;;;;;;;5076775;27;45366;-73
2021/11/30 01:11:49;;;;;;;;;19.50;16.00;;;;;;;;5079299;27;46305;-74
2021/11/30 01:14:14;;;;;;;;;18.00;12.00;;;;;;;;5076450;27;45418;-73
2021/11/30 01:16:39;;;;;;;;;14.67;13.33;;;;;;;;5078071;27;45355;-74
2021/11/30 01:19:05;;;;;;;;;12.00;11.75;;;;;;;;5077591;27;45461;-74
2021/11/30 01:21:31;;;;;;;;;15.75;12.00;;;;;;;;5069795;28;47490;-74
2021/11/30 01:23:56;;;;;;;;;14.50;12.25;;;;;;;;5085198;27;45475;-74
2021/11/30 01:26:21;;;;;;;;;11.00;11.00;;;;;;;;5066944;27;45606;-74
2021/11/30 01:28:46;;;;;;;;;12.67;8.33;;;;;;;;5081486;27;45766;-74
2021/11/30 01:31:12;;;;;;;;;15.33;11.00;;;;;;;;5073804;27;45414;-74
2021/11/30 01:33:37;;;;;;;;;13.00;11.25;;;;;;;;5080258;27;45389;-74
2021/11/30 01:36:03;;;;;;;;;10.25;8.25;;;;;;;;5071107;27;45442;-74
2021/11/30 01:38:30;;;;;;;;;13.75;13.75;;;;;;;;5074311;27;45687;-74
2021/11/30 01:40:56;;;;;;;;;8.50;8.50;;;;;;;;5075851;27;46152;-74
2021/11/30 01:43:25;;;;;;;;;16.75;11.50;;;;;;;;5077340;27;45641;-74
2021/11/30 01:51:14;;;;;;;;;15.00;11.00;;;;;;;;5086377;27;45366;-72
2021/11/30 01:53:39;;;;;;;;;9.67;8.00;;;;;;;;5058480;27;45842;-74
2021/11/30 01:56:04;;;;;;;;;10.00;9.00;;;;;;;;5085161;27;45384;-74
2021/11/30 01:58:30;;;;;;;;;21.33;11.00;;;;;;;;5087459;27;45383;-73
2021/11/30 02:00:55;;;;;;;;;18.67;13.67;;;;;;;;5077142;27;46603;-73
2021/11/30 02:03:20;;;;;;;;;13.67;9.67;;;;;;;;5094051;27;45350;-73
2021/11/30 02:05:45;;;;;;;;;15.50;11.00;;;;;;;;5079092;27;45415;-73
2021/11/30 02:08:11;;;;;;;;;18.33;14.33;;;;;;;;5080651;27;45602;-73
2021/11/30 02:10:37;;;;;;;;;12.50;11.75;;;;;;;;5057869;27;47213;-73
2021/11/30 02:13:03;;;;;;;;;10.25;8.50;;;;;;;;5072407;27;45913;-74
2021/11/30 02:15:29;;;;;;;;;15.75;10.00;;;;;;;;5077802;27;45532;-73
2021/11/30 02:17:55;;;;;;;;;12.67;11.67;;;;;;;;5081842;27;45368;-73
2021/11/30 02:20:20;;;;;;;;;14.50;11.00;;;;;;;;5079575;27;45397;-73
2021/11/30 02:22:53;;;;;;;;;13.25;12.50;;;;;;;;5081040;27;45553;-73
2021/11/30 02:25:18;;;;;;;;;11.25;10.75;;;;;;;;5061400;27;45521;-73
2021/11/30 02:27:43;;;;;;;;;16.00;13.67;;;;;;;;5073367;28;45471;-74
2021/11/30 02:30:09;;;;;;;;;18.67;11.33;;;;;;;;5081843;27;46055;-73
2021/11/30 02:32:34;;;;;;;;;13.00;11.25;;;;;;;;5082290;27;45505;-73
2021/11/30 02:34:59;;;;;;;;;15.00;12.33;;;;;;;;5079804;27;45508;-74
2021/11/30 02:37:28;;;;;;;;;12.33;9.67;;;;;;;;5080069;27;45400;-74
2021/11/30 02:39:53;;;;;;;;;13.75;9.00;;;;;;;;5072623;27;46053;-74
2021/11/30 02:42:18;;;;;;;;;12.33;10.33;;;;;;;;5091900;27;45339;-74
2021/11/30 02:44:43;;;;;;;;;10.75;9.25;;;;;;;;5080495;27;45443;-73
2021/11/30 02:47:10;;;;;;;;;12.00;11.75;;;;;;;;5080502;27;47822;-74
2021/11/30 02:49:36;;;;;;;;;14.75;9.75;;;;;;;;5061043;27;47405;-73
2021/11/30 02:52:08;;;;;;;;;9.50;9.00;;;;;;;;5057564;28;45334;-74
2021/11/30 02:54:35;;;;;;;;;8.75;8.00;;;;;;;;5061939;28;45671;-73
2021/11/30 02:57:01;;;;;;;;;9.00;9.00;;;;;;;;5073358;27;45433;-73
2021/11/30 02:59:28;;;;;;;;;12.50;12.25;;;;;;;;5079430;27;48568;-73
2021/11/30 03:01:58;;;;;;;;;15.00;11.25;;;;;;;;5079754;27;45906;-73
2021/11/30 03:04:24;;;;;;;;;16.00;12.00;;;;;;;;5066309;27;45440;-74
2021/11/30 03:06:50;;;;;;;;;17.25;10.75;;;;;;;;5075935;27;45381;-73
2021/11/30 03:09:15;;;;;;;;;15.25;12.50;;;;;;;;5062911;28;47015;-73
2021/11/30 03:11:41;;;;;;;;;12.75;10.75;;;;;;;;5087351;27;45441;-73
2021/11/30 03:14:06;;;;;;;;;15.00;13.75;;;;;;;;5061231;28;45752;-73
2021/11/30 03:16:31;;;;;;;;;12.00;9.75;;;;;;;;5075101;27;45461;-73
2021/11/30 03:18:57;;;;;;;;;10.50;10.50;;;;;;;;5074837;27;46078;-74
2021/11/30 03:21:22;;;;;;;;;9.67;8.67;;;;;;;;5068756;27;45461;-74
2021/11/30 03:23:47;;;;;;;;;15.33;12.00;;;;;;;;5080823;27;45398;-74
2021/11/30 03:26:13;;;;;;;;;8.00;8.00;;;;;;;;5079173;27;45477;-73
2021/11/30 03:28:40;;;;;;;;;15.00;10.75;;;;;;;;5078888;27;46281;-74
2021/11/30 03:31:08;;;;;;;;;14.75;12.50;;;;;;;;5078943;27;45410;-74
2021/11/30 03:36:18;;;;;;;;;8.75;8.75;;;;;;;;5089367;27;45483;-73
2021/11/30 03:38:43;;;;;;;;;12.00;10.25;;;;;;;;5086128;27;45799;-74
2021/11/30 03:41:10;;;;;;;;;13.33;11.00;;;;;;;;5083658;27;45397;-73
2021/11/30 03:43:35;;;;;;;;;17.75;12.00;;;;;;;;5079597;27;45389;-74
2021/11/30 03:46:01;;;;;;;;;19.00;14.50;;;;;;;;5076696;27;45296;-74
2021/11/30 03:48:26;;;;;;;;;20.25;11.75;;;;;;;;5076569;27;46196;-73
2021/11/30 03:50:51;;;;;;;;;13.75;8.00;;;;;;;;5090917;27;45382;-74
2021/11/30 03:53:17;;;;;;;;;13.67;11.33;;;;;;;;5083390;27;45632;-73
2021/11/30 03:55:42;;;;;;;;;14.33;11.33;;;;;;;;5068541;28;45325;-73
2021/11/30 03:58:07;;;;;;;;;12.67;10.00;;;;;;;;5083658;27;45487;-73
2021/11/30 04:00:32;;;;;;;;;13.33;8.00;;;;;;;;5079466;27;45478;-74
2021/11/30 04:02:58;;;;;;;;;15.00;12.00;;;;;;;;5087927;27;45379;-73
2021/11/30 04:05:23;;;;;;;;;19.25;13.75;;;;;;;;5073535;27;45516;-74
2021/11/30 04:07:48;;;;;;;;;15.67;11.67;;;;;;;;5078432;27;46013;-73
2021/11/30 04:10:14;;;;;;;;;16.67;11.33;;;;;;;;5085029;27;45659;-73
2021/11/30 04:12:39;;;;;;;;;18.50;13.25;;;;;;;;5074343;27;45675;-73
2021/11/30 04:15:05;;;;;;;;;16.33;12.67;;;;;;;;5079934;27;45454;-73
2021/11/30 04:17:30;;;;;;;;;16.00;11.00;;;;;;;;5077892;27;45387;-73
2021/11/30 04:19:55;;;;;;;;;12.67;9.00;;;;;;;;5078300;27;45493;-73
2021/11/30 04:22:20;;;;;;;;;12.33;12.33;;;;;;;;5076395;27;45508;-73
2021/11/30 04:24:46;;;;;;;;;18.67;16.00;;;;;;;;5085990;27;45521;-73
2021/11/30 04:27:11;;;;;;;;;17.67;12.33;;;;;;;;5086554;27;45612;-73
2021/11/30 04:29:38;;;;;;;;;16.75;10.25;;;;;;;;5077934;27;45472;-73
2021/11/30 04:32:04;;;;;;;;;19.75;13.50;;;;;;;;5077747;27;45347;-74
2021/11/30 04:34:29;;;;;;;;;15.75;13.00;;;;;;;;5078072;27;45371;-73
2021/11/30 04:36:54;;;;;;;;;19.67;14.33;;;;;;;;5074808;27;45290;-73
2021/11/30 04:39:19;;;;;;;;;18.33;14.33;;;;;;;;5050642;28;45414;-73
2021/11/30 04:41:45;;;;;;;;;14.33;9.33;;;;;;;;5059378;28;45425;-73
2021/11/30 04:44:10;;;;;;;;;20.67;17.67;;;;;;;;5077920;27;45459;-73
2021/11/30 04:46:55;;;;;;;;;12.50;11.25;;;;;;;;5077462;27;45453;-73
2021/11/30 04:49:57;;;;;;;;;22.75;13.25;;;;;;;;5078223;27;45378;-73
2021/11/30 04:52:14;;;;;;;;;18.00;15.25;;;;;;;;5072998;27;45331;-73
2021/11/30 04:54:39;;;;;;;;;13.75;13.00;;;;;;;;5079565;27;45570;-73
2021/11/30 04:57:05;;;;;;;;;13.75;12.25;;;;;;;;5078858;27;45460;-73
2021/11/30 04:59:30;;;;;;;;;16.25;13.00;;;;;;;;5084370;27;45379;-73
2021/11/30 05:01:55;;;;;;;;;13.67;12.00;;;;;;;;5083058;27;45366;-73
2021/11/30 05:04:20;;;;;;;;;12.50;10.25;;;;;;;;5084924;27;45378;-73
2021/11/30 05:06:46;;;;;;;;;17.33;12.33;;;;;;;;5082147;27;46096;-73
2021/11/30 05:09:11;;;;;;;;;15.33;15.00;;;;;;;;5079928;27;45301;-73
2021/11/30 05:11:39;;;;;;;;;15.33;10.00;;;;;;;;5074514;27;45575;-73
2021/11/30 05:14:05;;;;;;;;;17.75;11.50;;;;;;;;5070883;27;45464;-73
2021/11/30 05:16:30;;;;;;;;;16.50;13.75;;;;;;;;5077153;27;46925;-73
2021/11/30 05:18:56;;;;;;;;;12.00;11.50;;;;;;;;5077063;27;45748;-71
2021/11/30 05:21:22;;;;;;;;;23.75;13.75;;;;;;;;5077976;27;45430;-73
2021/11/30 05:23:47;;;;;;;;;10.50;10.00;;;;;;;;5082930;27;45707;-73
2021/11/30 05:26:13;;;;;;;;;12.67;8.67;;;;;;;;5076904;27;45433;-73
2021/11/30 05:28:40;;;;;;;;;14.50;12.25;;;;;;;;5072513;27;45442;-73
2021/11/30 05:31:07;;;;;;;;;16.00;14.00;;;;;;;;5058331;27;45520;-73
2021/11/30 05:33:32;;;;;;;;;11.00;10.75;;;;;;;;5089119;27;45528;-73
2021/11/30 05:35:58;;;;;;;;;14.25;12.00;;;;;;;;5094162;27;47070;-73
2021/11/30 05:38:24;;;;;;;;;12.75;10.25;;;;;;;;5088959;27;45509;-73
2021/11/30 05:40:49;;;;;;;;;18.25;14.75;;;;;;;;5077682;27;45438;-73
2021/11/30 05:43:15;;;;;;;;;13.00;11.75;;;;;;;;5071613;27;45471;-73
2021/11/30 05:45:41;;;;;;;;;11.75;11.00;;;;;;;;5080311;27;47839;-73
2021/11/30 05:48:06;;;;;;;;;8.00;8.00;;;;;;;;5080283;27;46483;-73
2021/11/30 05:50:32;;;;;;;;;15.00;9.00;;;;;;;;5077593;27;45504;-73
2021/11/30 05:52:57;;;;;;;;;12.25;12.00;;;;;;;;5093674;27;45226;-73
2021/11/30 05:55:22;;;;;;;;;17.25;11.25;;;;;;;;5094013;27;46377;-74
2021/11/30 05:57:48;;;;;;;;;15.67;12.00;;;;;;;;5052016;28;45538;-73
2021/11/30 06:00:16;;;;;;;;;12.67;10.00;;;;;;;;5077554;27;45462;-73
2021/11/30 06:05:20;;;;;;;;;11.75;8.50;;;;;;;;5081690;27;45383;-73
2021/11/30 06:07:45;;;;;;;;;12.50;12.50;;;;;;;;5079986;27;45766;-73
2021/11/30 06:10:10;;;;;;;;;13.67;9.33;;;;;;;;5060555;27;45294;-73
2021/11/30 06:12:35;;;;;;;;;14.33;12.00;;;;;;;;5078102;27;45344;-73
2021/11/30 06:15:00;;;;;;;;;11.33;9.67;;;;;;;;5075425;27;45383;-73
2021/11/30 06:17:25;;;;;;;;;14.33;10.33;;;;;;;;5085509;27;45433;-73
2021/11/30 06:19:51;;;;;;;;;23.00;10.00;;;;;;;;5080545;27;45564;-73
2021/11/30 06:22:16;;;;;;;;;17.00;12.33;;;;;;;;5083820;27;45342;-73
2021/11/30 06:24:41;;;;;;;;;13.67;9.67;;;;;;;;5071270;27;45397;-73
2021/11/30 06:27:06;;;;;;;;;14.67;13.00;;;;;;;;5083520;27;45443;-73
2021/11/30 06:29:31;;;;;;;;;13.00;10.00;;;;;;;;5078314;27;45530;-73
2021/11/30 06:31:57;;;;;;;;;16.00;15.00;;;;;;;;5070423;27;45523;-73
2021/11/30 06:34:22;;;;;;;;;13.00;13.00;;;;;;;;5077799;27;45511;-73
2021/11/30 06:36:47;;;;;;;;;20.33;13.67;;;;;;;;5071840;27;46567;-73
2021/11/30 06:39:13;;;;;;;;;11.50;9.50;;;;;;;;5064015;27;45481;-73
2021/11/30 06:41:38;;;;;;;;;9.50;8.00;;;;;;;;5079037;27;45480;-73
2021/11/30 06:44:03;;;;;;;;;7.00;5.75;;;;;;;;5082394;27;45994;-74
2021/11/30 06:46:29;;;;;;;;;14.33;11.33;;;;;;;;5063847;27;45625;-73
2021/11/30 06:48:54;;;;;;;;;13.00;11.00;;;;;;;;5075875;27;45490;-73
2021/11/30 06:51:19;;;;;;;;;8.67;8.67;;;;;;;;5088021;27;45463;-73
2021/11/30 06:53:44;;;;;;;;;15.67;12.00;;;;;;;;5103384;27;47338;-73
2021/11/30 06:56:10;;;;;;;;;12.67;10.33;;;;;;;;5083201;27;45254;-73
2021/11/30 06:58:35;;;;;;;;;17.00;14.75;;;;;;;;5088709;27;45410;-73
2021/11/30 07:01:01;;;;;;;;;8.00;3.33;;;;;;;;5077325;27;45520;-73
2021/11/30 07:03:26;;;;;;;;;13.75;12.00;;;;;;;;5080636;27;45823;-73
2021/11/30 07:06:02;;;;;;;;;11.33;9.33;;;;;;;;5086615;27;45377;-72
2021/11/30 07:08:54;;;;;;;;;14.75;12.50;;;;;;;;5088244;27;45528;-73
2021/11/30 07:11:23;;;;;;;;;12.00;8.50;;;;;;;;5082421;27;45343;-73
2021/11/30 07:13:48;;;;;;;;;16.75;13.75;;;;;;;;5079151;27;45946;-73
2021/11/30 07:16:14;;;;;;;;;16.00;8.00;;;;;;;;5077187;27;45443;-73
2021/11/30 07:18:40;;;;;;;;;12.33;12.33;;;;;;;;5074378;27;45798;-73
2021/11/30 07:21:06;;;;;;;;;17.00;14.25;;;;;;;;5080974;27;45447;-73
2021/11/30 07:23:31;;;;;;;;;11.75;10.25;;;;;;;;5079356;27;46281;-73
2021/11/30 07:25:57;;;;;;;;;15.67;12.67;;;;;;;;5078999;27;45402;-73
2021/11/30 07:28:28;;;;;;;;;21.25;17.25;;;;;;;;5084370;27;45472;-73
2021/11/30 07:30:54;;;;;;;;;16.50;13.75;;;;;;;;5079476;27;45311;-73
2021/11/30 07:33:19;;;;;;;;;20.50;14.25;;;;;;;;5077982;27;45906;-73
2021/11/30 07:35:44;;;;;;;;;14.33;8.67;;;;;;;;5070149;27;45501;-72
2021/11/30 07:38:09;;;;;;;;;14.67;9.67;;;;;;;;5073173;27;45611;-73
2021/11/30 07:40:34;;;;;;;;;17.00;12.33;;;;;;;;5066624;28;45349;-74
2021/11/30 07:43:00;;;;;;;;;15.00;11.67;;;;;;;;5058540;28;45365;-72
2021/11/30 07:45:25;;;;;;;;;15.00;15.00;;;;;;;;5059026;27;45699;-75
2021/11/30 07:47:50;;;;;;;;;17.00;12.00;;;;;;;;5056791;27;45371;-73
2021/11/30 07:50:16;;;;;;;;;15.75;13.50;;;;;;;;5069805;27;45643;-74
2021/11/30 07:52:43;;;;;;;;;17.50;12.75;;;;;;;;5058818;27;48518;-73
2021/11/30 07:55:09;;;;;;;;;17.50;13.75;;;;;;;;5069820;27;45941;-73
2021/11/30 07:57:35;;;;;;;;;12.50;12.50;;;;;;;;5080205;27;45503;-73
2021/11/30 08:00:00;;;;;;;;;22.33;13.67;;;;;;;;5073749;27;45548;-73
2021/11/30 08:02:26;;;;;;;;;21.00;14.00;;;;;;;;5065135;27;46160;-73
2021/11/30 08:04:51;;;;;;;;;20.00;14.00;;;;;;;;5062813;27;46253;-73
2021/11/30 08:07:17;;;;;;;;;22.00;17.00;;;;;;;;5071608;27;45340;-72
2021/11/30 08:09:43;;;;;;;;;18.75;12.50;;;;;;;;5073900;27;45700;-73
2021/11/30 08:12:08;;;;;;;;;19.75;16.00;;;;;;;;5070542;28;45504;-72
2021/11/30 08:14:33;;;;;;;;;18.00;16.00;;;;;;;;5056972;28;45521;-72
2021/11/30 08:16:59;;;;;;;;;19.33;12.67;;;;;;;;5065243;27;45801;-73
2021/11/30 08:19:24;;;;;;;;;12.33;8.33;;;;;;;;5088264;27;45521;-73
2021/11/30 08:21:50;;;;;;;;;22.50;17.00;;;;;;;;5071456;27;45496;-72
2021/11/30 08:24:15;;;;;;;;;16.50;12.75;;;;;;;;5083508;27;45540;-73
2021/11/30 08:26:41;;;;;;;;;20.67;17.00;;;;;;;;5076840;27;45426;-73
2021/11/30 08:29:06;;;;;;;;;20.50;16.50;;;;;;;;5084513;27;45619;-73
2021/11/30 08:31:32;;;;;;;;;23.33;14.33;;;;;;;;5069602;27;47310;-72
2021/11/30 08:33:57;;;;;;;;;22.67;15.00;;;;;;;;5074677;27;45432;-73
2021/11/30 08:36:22;;;;;;;;;17.33;16.00;;;;;;;;5081754;27;45509;-72
2021/11/30 08:38:47;;;;;;;;;20.67;17.00;;;;;;;;5078631;27;45422;-73
2021/11/30 08:41:12;;;;;;;;;25.33;20.33;;;;;;;;5077951;27;45244;-73
2021/11/30 08:43:38;;;;;;;;;24.00;16.00;;;;;;;;5077795;27;45385;-73
2021/11/30 08:46:03;;;;;;;;;26.00;17.00;;;;;;;;5057903;27;45403;-72
2021/11/30 08:48:29;;;;;;;;;19.25;15.00;;;;;;;;5076121;27;45375;-73
2021/11/30 08:50:55;;;;;;;;;23.00;17.33;;;;;;;;5079172;27;46578;-72
2021/11/30 08:53:21;;;;;;;;;26.00;20.75;;;;;;;;5075675;27;45415;-73
2021/11/30 08:55:46;;;;;;;;;19.00;18.00;;;;;;;;5080107;27;45473;-73
2021/11/30 08:58:11;;;;;;;;;25.75;22.50;;;;;;;;5089277;27;45495;-73
2021/11/30 09:00:38;;;;;;;;;34.50;21.00;;;;;;;;5075721;27;46324;-73
2021/11/30 09:03:03;;;;;;;;;32.75;22.25;;;;;;;;5084782;27;46145;-73
2021/11/30 09:05:29;;;;;;;;;27.00;18.25;;;;;;;;5059604;27;45739;-73
2021/11/30 09:07:56;;;;;;;;;27.33;21.67;;;;;;;;5079528;27;45519;-73
2021/11/30 09:10:21;;;;;;;;;35.75;24.00;;;;;;;;5073295;27;45488;-73
2021/11/30 09:12:46;;;;;;;;;28.33;20.33;;;;;;;;5072271;27;46719;-73
2021/11/30 09:15:11;;;;;;;;;25.00;20.67;;;;;;;;5091241;27;45312;-74
2021/11/30 09:17:37;;;;;;;;;28.00;21.67;;;;;;;;5077786;27;45517;-73
2021/11/30 09:20:05;;;;;;;;;27.00;18.50;;;;;;;;5077126;27;46264;-74
2021/11/30 09:22:32;;;;;;;;;29.25;23.00;;;;;;;;5077260;27;46032;-73
2021/11/30 09:24:58;;;;;;;;;26.00;21.00;;;;;;;;5074469;27;45444;-74
2021/11/30 09:27:25;;;;;;;;;19.50;15.75;;;;;;;;5077254;27;45497;-74
2021/11/30 09:29:50;;;;;;;;;21.75;18.75;;;;;;;;5078926;27;45522;-74
2021/11/30 09:32:16;;;;;;;;;29.67;23.67;;;;;;;;5082859;27;45535;-73
2021/11/30 09:34:41;;;;;;;;;33.33;22.33;;;;;;;;5077976;27;45435;-73
2021/11/30 09:37:08;;;;;;;;;24.67;21.00;;;;;;;;5076023;27;45422;-73
2021/11/30 09:39:33;;;;;;;;;27.50;25.50;;;;;;;;5074102;27;46235;-73
2021/11/30 09:41:58;;;;;;;;;29.00;25.00;;;;;;;;5079804;27;45405;-73
2021/11/30 09:44:24;;;;;;;;;30.00;24.33;;;;;;;;5077235;27;45335;-73
2021/11/30 09:46:49;;;;;;;;;22.67;18.33;;;;;;;;5077212;27;45414;-73
2021/11/30 09:49:15;;;;;;;;;32.75;25.00;;;;;;;;5076585;27;47275;-73
2021/11/30 09:51:40;;;;;;;;;28.50;22.25;;;;;;;;5072982;27;45398;-73
2021/11/30 09:54:05;;;;;;;;;23.00;18.50;;;;;;;;5079137;27;45545;-73
2021/11/30 09:56:31;;;;;;;;;24.33;21.67;;;;;;;;5057009;28;45552;-73
2021/11/30 09:58:56;;;;;;;;;18.75;17.75;;;;;;;;5077274;27;46562;-73
2021/11/30 10:01:21;;;;;;;;;27.33;18.00;;;;;;;;5078736;27;45444;-73
2021/11/30 10:03:46;;;;;;;;;24.00;18.25;;;;;;;;5081746;27;45403;-74
2021/11/30 10:06:13;;;;;;;;;27.00;23.67;;;;;;;;5085819;27;45347;-74
2021/11/30 10:08:39;;;;;;;;;19.25;16.50;;;;;;;;5077135;27;45903;-73
2021/11/30 10:11:05;;;;;;;;;23.25;18.75;;;;;;;;5074373;27;45528;-73
2021/11/30 10:13:30;;;;;;;;;30.25;24.00;;;;;;;;5078769;27;45476;-73
2021/11/30 10:16:01;;;;;;;;;24.50;19.50;;;;;;;;5077451;27;45326;-73
2021/11/30 10:18:29;;;;;;;;;24.50;18.50;;;;;;;;5078808;27;45996;-73
2021/11/30 10:21:06;;;;;;;;;28.75;22.00;;;;;;;;5081805;27;45319;-73
2021/11/30 10:23:43;;;;;;;;;26.50;21.50;;;;;;;;5080483;27;45619;-73
2021/11/30 10:26:08;;;;;;;;;31.00;23.25;;;;;;;;5080718;27;45436;-73
2021/11/30 10:28:33;;;;;;;;;28.75;21.50;;;;;;;;5080217;27;46132;-73
2021/11/30 10:30:58;;;;;;;;;25.00;21.00;;;;;;;;5094298;27;44809;-74
2021/11/30 10:33:25;;;;;;;;;27.50;17.25;;;;;;;;5111504;27;44711;-74
2021/11/30 10:35:53;;;;;;;;;20.50;16.50;;;;;;;;5084441;27;45774;-74
2021/11/30 10:38:18;;;;;;;;;20.75;17.75;;;;;;;;5080531;27;45357;-74
2021/11/30 10:40:44;;;;;;;;;24.75;19.75;;;;;;;;5080115;27;45430;-73
2021/11/30 10:43:10;;;;;;;;;25.50;23.25;;;;;;;;5079040;27;45363;-73
2021/11/30 10:45:45;;;;;;;;;29.75;21.00;;;;;;;;5077542;27;45303;-73
2021/11/30 10:48:11;;;;;;;;;31.00;20.25;;;;;;;;5081645;27;46279;-73
2021/11/30 10:50:40;;;;;;;;;29.67;22.67;;;;;;;;5079810;27;45448;-73
2021/11/30 10:53:18;;;;;;;;;25.50;19.50;;;;;;;;5080008;27;45491;-74
2021/11/30 10:55:45;;;;;;;;;23.50;16.00;;;;;;;;5079900;27;45336;-73
2021/11/30 10:58:10;;;;;;;;;24.00;21.50;;;;;;;;5078829;27;45434;-73
2021/11/30 11:00:36;;;;;;;;;23.00;17.25;;;;;;;;5078257;27;46064;-73
2021/11/30 11:05:32;;;;;;;;;23.50;18.00;;;;;;;;5079596;27;45419;-73
2021/11/30 11:07:57;;;;;;;;;15.50;12.50;;;;;;;;5079480;27;45364;-74
2021/11/30 11:10:25;;;;;;;;;18.67;16.00;;;;;;;;5079785;27;45384;-73
2021/11/30 11:12:50;;;;;;;;;12.25;10.00;;;;;;;;5075825;27;45319;-73
2021/11/30 11:15:34;;;;;;;;;21.00;16.00;;;;;;;;5081313;27;45435;-73
2021/11/30 11:18:05;;;;;;;;;19.25;17.00;;;;;;;;5083056;27;45560;-74
2021/11/30 11:20:30;;;;;;;;;21.25;16.00;;;;;;;;5079025;27;45566;-74
2021/11/30 11:22:56;;;;;;;;;18.00;14.00;;;;;;;;5079987;27;45537;-73
2021/11/30 11:25:28;;;;;;;;;21.00;15.50;;;;;;;;5077145;27;45490;-74
2021/11/30 11:27:57;;;;;;;;;18.75;12.00;;;;;;;;5075954;27;46300;-74
2021/11/30 11:30:22;;;;;;;;;22.25;16.25;;;;;;;;5079416;27;46151;-74
2021/11/30 11:32:48;;;;;;;;;16.00;15.00;;;;;;;;5079118;27;45551;-74
2021/11/30 11:35:14;;;;;;;;;19.75;19.00;;;;;;;;5079867;27;45350;-73
2021/11/30 11:37:39;;;;;;;;;27.00;19.00;;;;;;;;5079100;27;45497;-73
2021/11/30 11:40:05;;;;;;;;;21.00;16.75;;;;;;;;5076962;27;45454;-73
2021/11/30 11:42:30;;;;;;;;;21.00;14.75;;;;;;;;5076875;27;45371;-73
2021/11/30 11:44:57;;;;;;;;;20.50;16.75;;;;;;;;5081020;27;45398;-73
2021/11/30 11:47:23;;;;;;;;;18.00;16.00;;;;;;;;5078909;27;45565;-74
2021/11/30 11:49:50;;;;;;;;;21.25;17.00;;;;;;;;5082208;27;45600;-73
2021/11/30 11:52:18;;;;;;;;;20.25;16.00;;;;;;;;5078652;27;45341;-73
2021/11/30 11:54:54;;;;;;;;;21.50;15.75;;;;;;;;5074422;27;45582;-73
2021/11/30 11:57:20;;;;;;;;;23.50;15.75;;;;;;;;5088870;27;46292;-74
2021/11/30 11:59:47;;;;;;;;;20.75;16.25;;;;;;;;5079662;27;45365;-73
2021/11/30 12:02:20;;;;;;;;;21.00;17.50;;;;;;;;5078821;27;45432;-73
2021/11/30 12:04:46;;;;;;;;;22.50;15.00;;;;;;;;5078889;27;45490;-73
2021/11/30 12:07:11;;;;;;;;;20.50;13.00;;;;;;;;5077714;27;46075;-73
2021/11/30 12:09:37;;;;;;;;;19.00;13.67;;;;;;;;5075577;27;45472;-73
2021/11/30 12:12:11;;;;;;;;;21.00;15.75;;;;;;;;5080932;27;46452;-73
2021/11/30 12:14:40;;;;;;;;;17.25;15.50;;;;;;;;5078245;27;45692;-73
2021/11/30 12:17:09;;;;;;;;;21.25;15.25;;;;;;;;5078563;27;46125;-73
2021/11/30 12:19:36;;;;;;;;;17.75;14.50;;;;;;;;5079873;27;46009;-73
2021/11/30 12:22:02;;;;;;;;;5.00;3.00;;;;;;;;5076119;27;45497;-73
2021/11/30 12:24:35;;;;;;;;;23.75;13.25;;;;;;;;5076749;27;45428;-73
2021/11/30 12:27:02;;;;;;;;;22.00;16.50;;;;;;;;5078815;27;45344;-73
2021/11/30 12:29:30;;;;;;;;;15.00;13.00;;;;;;;;5077779;27;45823;-73
2021/11/30 12:31:56;;;;;;;;;14.00;12.75;;;;;;;;5078523;27;45353;-74
2021/11/30 12:34:31;;;;;;;;;18.75;11.50;;;;;;;;5078324;27;45434;-74
2021/11/30 12:37:04;;;;;;;;;20.25;12.00;;;;;;;;5073856;27;45412;-73
2021/11/30 12:39:49;;;;;;;;;12.50;11.50;;;;;;;;5076081;27;46025;-73
2021/11/30 12:42:14;;;;;;;;;14.00;9.75;;;;;;;;5088032;27;45446;-73
2021/11/30 12:44:42;;;;;;;;;13.67;11.00;;;;;;;;5077877;27;45324;-73
2021/11/30 12:47:18;;;;;;;;;12.50;12.50;;;;;;;;5077787;27;45443;-73
2021/11/30 12:49:44;;;;;;;;;13.50;10.50;;;;;;;;5082363;27;45429;-73
2021/11/30 12:52:12;;;;;;;;;10.00;7.25;;;;;;;;5064112;27;45468;-73
2021/11/30 12:54:39;;;;;;;;;13.00;9.75;;;;;;;;5074381;27;45362;-74
2021/11/30 12:57:05;;;;;;;;;14.00;12.00;;;;;;;;5080150;27;45298;-73
2021/11/30 12:59:37;;;;;;;;;13.25;11.50;;;;;;;;5075588;27;45846;-73
2021/11/30 13:02:20;;;;;;;;;18.25;11.00;;;;;;;;5078375;27;45493;-73
2021/11/30 13:04:47;;;;;;;;;23.75;15.50;;;;;;;;5077919;27;46870;-73
2021/11/30 13:07:13;;;;;;;;;16.00;12.75;;;;;;;;5077304;27;46600;-73
2021/11/30 13:09:42;;;;;;;;;13.00;12.25;;;;;;;;5074348;27;45652;-73
2021/11/30 13:12:08;;;;;;;;;18.00;15.50;;;;;;;;5079710;27;45416;-73
2021/11/30 13:14:37;;;;;;;;;11.50;8.75;;;;;;;;5077271;27;45378;-74
2021/11/30 13:17:03;;;;;;;;;11.75;11.00;;;;;;;;5077582;27;45543;-73
2021/11/30 13:19:32;;;;;;;;;12.75;12.00;;;;;;;;5077366;27;45276;-74
2021/11/30 13:21:58;;;;;;;;;12.50;10.25;;;;;;;;5075192;27;45453;-73
2021/11/30 13:24:31;;;;;;;;;8.75;8.75;;;;;;;;5058632;28;45366;-74
2021/11/30 13:27:07;;;;;;;;;15.00;11.00;;;;;;;;5081568;27;46804;-74
2021/11/30 13:29:33;;;;;;;;;7.50;6.50;;;;;;;;5086043;27;45397;-74
2021/11/30 13:31:59;;;;;;;;;11.00;8.25;;;;;;;;5063794;28;45478;-73
2021/11/30 13:34:24;;;;;;;;;12.25;11.25;;;;;;;;5077352;27;45529;-74
2021/11/30 13:36:50;;;;;;;;;12.00;9.33;;;;;;;;5073341;27;45542;-73
2021/11/30 13:39:15;;;;;;;;;18.33;11.67;;;;;;;;5081308;27;45421;-73
2021/11/30 13:41:40;;;;;;;;;14.00;11.67;;;;;;;;5084498;27;45765;-73
2021/11/30 13:44:06;;;;;;;;;17.00;15.25;;;;;;;;5082093;27;45775;-74
2021/11/30 13:46:35;;;;;;;;;15.00;13.50;;;;;;;;5077011;27;45435;-73
2021/11/30 13:49:03;;;;;;;;;16.00;13.75;;;;;;;;5077039;27;45839;-74
2021/11/30 13:51:31;;;;;;;;;19.50;17.25;;;;;;;;5078883;27;45468;-74
2021/11/30 13:53:57;;;;;;;;;17.75;12.75;;;;;;;;5080885;27;45361;-73
2021/11/30 13:56:28;;;;;;;;;19.00;16.75;;;;;;;;5080566;27;46003;-74
2021/11/30 13:58:59;;;;;;;;;19.25;18.00;;;;;;;;5080599;27;45379;-74
2021/11/30 14:01:27;;;;;;;;;17.75;15.00;;;;;;;;5062697;27;45358;-74
2021/11/30 14:03:54;;;;;;;;;15.75;15.00;;;;;;;;5077906;27;45582;-73
2021/11/30 14:06:30;;;;;;;;;20.50;16.00;;;;;;;;5080789;27;46187;-74
2021/11/30 14:09:00;;;;;;;;;15.50;12.00;;;;;;;;5080531;27;45488;-74
2021/11/30 14:11:28;;;;;;;;;16.25;13.25;;;;;;;;5078941;27;45516;-73
2021/11/30 14:13:53;;;;;;;;;17.00;14.75;;;;;;;;5080506;27;45446;-73
2021/11/30 14:16:20;;;;;;;;;17.75;17.00;;;;;;;;5079976;27;46186;-73
2021/11/30 14:19:12;;;;;;;;;26.25;16.75;;;;;;;;5076280;27;45498;-74
2021/11/30 14:21:37;;;;;;;;;14.50;12.00;;;;;;;;5089923;27;45299;-74
2021/11/30 14:24:13;;;;;;;;;16.67;16.00;;;;;;;;5082636;27;45386;-74
2021/11/30 14:26:44;;;;;;;;;20.25;18.25;;;;;;;;5079737;27;45492;-74
2021/11/30 14:29:11;;;;;;;;;16.75;16.25;;;;;;;;5080354;27;45734;-73